Time;durP1;ratioP1;P1;durP2;ratioP2;P2;SDS_P1;SDS_P2;PMS_P1;PMS_P2;Temp;Humidity;BMP_temperature;BMP_pressure;BME280_temperature;BME280_humidity;BME280_pressure;Samples;Min_cycle;Max_cycle;Signal;HPM_P1;HPM_P2
2023/04/10 00:01:04;;;;;;;65.22;54.93;;;29.00;93.10;;;;;;1728771;81;21138;-85
2023/04/10 00:03:35;;;;;;;68.15;58.38;;;28.90;93.20;;;;;;1788194;80;21223;-86
2023/04/10 00:06:07;;;;;;;70.45;56.83;;;28.90;93.00;;;;;;1796611;80;21211;-87
2023/04/10 00:08:38;;;;;;;71.70;58.65;;;28.90;93.20;;;;;;1809671;79;21229;-85
2023/04/10 00:11:09;;;;;;;72.08;57.93;;;29.00;93.20;;;;;;1809221;78;21150;-88
2023/04/10 00:13:40;;;;;;;71.75;55.90;;;29.00;93.20;;;;;;1775660;80;21087;-86
2023/04/10 00:16:12;;;;;;;59.83;48.70;;;29.00;93.10;;;;;;1820813;78;21650;-86
2023/04/10 00:18:43;;;;;;;62.17;51.40;;;29.00;93.00;;;;;;1832978;78;21176;-85
2023/04/10 00:21:14;;;;;;;61.68;48.95;;;29.10;92.90;;;;;;1814387;78;21185;-86
2023/04/10 00:23:45;;;;;;;57.45;45.28;;;29.10;92.40;;;;;;1808520;78;21742;-86
2023/04/10 00:26:16;;;;;;;54.70;44.18;;;29.20;92.10;;;;;;1816205;78;21172;-85
2023/04/10 00:28:48;;;;;;;52.03;44.27;;;29.20;91.80;;;;;;1811836;78;21199;-85
2023/04/10 00:31:19;;;;;;;56.13;45.45;;;29.30;91.60;;;;;;1805600;76;21121;-85
2023/04/10 00:33:50;;;;;;;75.85;45.78;;;29.30;91.90;;;;;;1828855;78;21195;-86
2023/04/10 00:36:22;;;;;;;55.17;42.27;;;29.40;91.30;;;;;;1817932;78;21089;-86
2023/04/10 00:38:53;;;;;;;55.52;42.88;;;29.40;91.00;;;;;;1775388;80;21166;-84
2023/04/10 00:41:24;;;;;;;58.23;44.95;;;29.40;90.80;;;;;;1802655;78;21165;-85
2023/04/10 00:43:59;;;;;;;49.35;40.83;;;29.40;90.70;;;;;;1754953;80;21117;-85
2023/04/10 00:46:34;;;;;;;56.73;43.13;;;29.50;90.50;;;;;;1794870;78;21155;-85
2023/04/10 00:49:05;;;;;;;50.05;43.83;;;29.50;90.50;;;;;;1746577;81;21202;-85
2023/04/10 00:51:38;;;;;;;51.18;41.50;;;29.60;90.30;;;;;;1759333;80;21164;-86
2023/04/10 00:54:10;;;;;;;54.48;42.17;;;29.60;90.60;;;;;;1750491;80;21143;-87
2023/04/10 00:56:41;;;;;;;53.58;43.68;;;29.70;90.20;;;;;;1753956;80;21192;-86
2023/04/10 00:59:13;;;;;;;54.60;44.08;;;29.70;90.30;;;;;;1758283;81;21101;-84
2023/04/10 01:01:44;;;;;;;62.33;44.08;;;29.70;90.10;;;;;;1725696;80;21163;-85
2023/04/10 01:04:16;;;;;;;54.85;44.80;;;29.80;90.10;;;;;;1741317;80;21109;-85
2023/04/10 01:06:59;;;;;;;51.45;45.85;;;29.80;90.20;;;;;;1788047;79;21148;-85
2023/04/10 01:09:50;;;;;;;58.35;45.67;;;29.90;89.60;;;;;;1776057;79;21091;-85
2023/04/10 01:12:24;;;;;;;55.15;43.75;;;30.00;89.30;;;;;;1777797;79;21134;-87
2023/04/10 01:15:06;;;;;;;50.20;42.43;;;30.00;89.30;;;;;;1775521;79;21130;-87
2023/04/10 01:17:45;;;;;;;58.08;44.18;;;30.00;89.20;;;;;;1804970;78;21223;-86
2023/04/10 01:20:25;;;;;;;53.50;46.20;;;30.00;89.00;;;;;;1792651;80;21577;-86
2023/04/10 01:23:13;;;;;;;53.40;43.10;;;30.00;89.00;;;;;;1809791;78;21161;-85
2023/04/10 01:25:58;;;;;;;59.15;46.63;;;30.10;89.30;;;;;;1779892;80;21211;-85
2023/04/10 01:28:32;;;;;;;54.35;44.50;;;30.10;89.10;;;;;;1804897;78;21159;-86
2023/04/10 01:31:04;;;;;;;55.75;42.95;;;30.10;88.70;;;;;;1792225;78;21591;-87
2023/04/10 01:33:41;;;;;;;57.73;42.40;;;30.10;89.00;;;;;;1746120;80;21349;-86
2023/04/10 01:36:14;;;;;;;54.50;43.83;;;30.10;88.50;;;;;;1775227;79;21200;-86
2023/04/10 01:38:46;;;;;;;52.27;43.28;;;30.20;88.60;;;;;;1784048;79;21134;-85
2023/04/10 01:41:19;;;;;;;52.58;44.05;;;30.20;88.50;;;;;;1779636;80;21503;-83
2023/04/10 01:43:52;;;;;;;59.42;43.85;;;30.30;88.30;;;;;;1799973;77;21153;-83
2023/04/10 01:46:25;;;;;;;52.80;42.88;;;30.40;87.80;;;;;;1800920;77;21204;-83
2023/04/10 01:48:58;;;;;;;52.55;43.78;;;30.40;87.60;;;;;;1807642;79;21169;-83
2023/04/10 01:51:31;;;;;;;52.88;44.77;;;30.50;87.60;;;;;;1791371;80;21177;-84
2023/04/10 01:54:03;;;;;;;56.02;43.85;;;30.50;87.20;;;;;;1789918;79;21106;-84
2023/04/10 01:56:36;;;;;;;52.43;43.17;;;30.60;86.30;;;;;;1773786;80;21650;-83
2023/04/10 01:59:07;;;;;;;55.28;42.20;;;30.60;86.60;;;;;;1811536;78;21103;-84
2023/04/10 02:01:38;;;;;;;55.78;44.05;;;30.70;85.00;;;;;;1795482;79;21104;-85
2023/04/10 02:04:10;;;;;;;54.30;42.70;;;30.80;86.00;;;;;;1765801;80;21669;-83
2023/04/10 02:07:02;;;;;;;51.30;43.68;;;30.80;86.20;;;;;;1794449;79;21215;-84
2023/04/10 02:09:54;;;;;;;54.48;43.33;;;30.90;85.70;;;;;;1782507;79;21177;-85
2023/04/10 02:12:30;;;;;;;59.73;44.55;;;31.00;85.20;;;;;;1782342;78;21188;-83
2023/04/10 02:15:05;;;;;;;59.83;42.65;;;31.10;84.60;;;;;;1745207;79;21171;-84
2023/04/10 02:17:37;;;;;;;49.53;42.13;;;31.20;84.60;;;;;;1771225;79;21612;-83
2023/04/10 02:20:10;;;;;;;50.63;42.23;;;31.30;84.10;;;;;;1778533;79;21537;-84
2023/04/10 02:22:45;;;;;;;56.23;46.23;;;31.30;83.30;;;;;;1778424;79;21142;-84
2023/04/10 02:25:17;;;;;;;51.80;41.73;;;31.50;83.00;;;;;;1799507;78;21704;-81
2023/04/10 02:27:48;;;;;;;46.50;39.78;;;31.60;82.90;;;;;;1799740;78;21133;-80
2023/04/10 02:30:19;;;;;;;48.40;40.17;;;31.70;82.30;;;;;;1769007;81;21164;-81
2023/04/10 02:32:50;;;;;;;49.93;39.48;;;31.80;81.50;;;;;;1801691;78;21192;-81
2023/04/10 02:35:23;;;;;;;45.95;39.58;;;31.90;81.10;;;;;;1765002;81;21589;-82
2023/04/10 02:37:54;;;;;;;52.48;44.60;;;32.10;81.30;;;;;;1789204;79;21200;-80
2023/04/10 02:40:26;;;;;;;48.00;40.73;;;32.10;81.00;;;;;;1746464;79;21198;-82
2023/04/10 02:43:00;;;;;;;52.25;38.92;;;32.20;80.60;;;;;;1769832;79;21147;-82
2023/04/10 02:45:34;;;;;;;48.60;39.90;;;32.30;80.10;;;;;;1778526;79;21222;-76
2023/04/10 02:48:06;;;;;;;50.78;41.50;;;32.40;80.30;;;;;;1779550;79;21159;-75
2023/04/10 02:50:37;;;;;;;46.92;38.78;;;32.50;78.50;;;;;;1774539;79;21664;-76
2023/04/10 02:53:08;;;;;;;44.88;38.15;;;32.50;78.50;;;;;;1775587;79;21207;-76
2023/04/10 02:55:39;;;;;;;47.50;40.05;;;32.60;78.80;;;;;;1756878;80;21208;-73
2023/04/10 02:58:10;;;;;;;44.00;37.98;;;32.60;77.80;;;;;;1743769;80;21175;-75
2023/04/10 03:00:44;;;;;;;43.80;37.60;;;32.70;77.90;;;;;;1786350;79;21178;-75
2023/04/10 03:03:15;;;;;;;45.30;37.17;;;32.80;77.60;;;;;;1745372;81;21604;-74
2023/04/10 03:05:48;;;;;;;42.43;34.35;;;32.90;77.20;;;;;;1780703;80;21164;-74
2023/04/10 03:08:19;;;;;;;45.33;37.00;;;33.00;75.60;;;;;;1748715;81;21748;-75
2023/04/10 03:10:51;;;;;;;41.10;33.95;;;33.10;74.50;;;;;;1736678;80;21190;-74
2023/04/10 03:13:25;;;;;;;43.65;35.17;;;33.20;74.60;;;;;;1779384;79;21476;-74
2023/04/10 03:15:56;;;;;;;37.20;33.20;;;33.30;73.40;;;;;;1777339;80;21165;-73
2023/04/10 03:18:28;;;;;;;41.35;34.35;;;33.40;72.60;;;;;;1783789;79;21233;-74
2023/04/10 03:21:00;;;;;;;44.40;35.78;;;33.50;72.60;;;;;;1770402;80;21283;-74
2023/04/10 03:23:31;;;;;;;38.75;34.58;;;33.50;72.60;;;;;;1779831;79;21110;-72
2023/04/10 03:26:03;;;;;;;35.92;32.15;;;33.70;72.90;;;;;;1776845;79;21139;-74
2023/04/10 03:28:35;;;;;;;39.10;34.38;;;33.70;71.80;;;;;;1775348;79;21172;-75
2023/04/10 03:31:07;;;;;;;46.20;38.75;;;33.80;71.80;;;;;;1728738;82;21627;-74
2023/04/10 03:33:38;;;;;;;43.42;36.63;;;33.80;70.90;;;;;;1778167;79;21138;-74
2023/04/10 03:36:10;;;;;;;42.88;37.08;;;33.90;70.90;;;;;;1730910;81;21209;-74
2023/04/10 03:38:41;;;;;;;45.00;35.78;;;34.00;70.90;;;;;;1785285;79;21549;-73
2023/04/10 03:41:13;;;;;;;37.28;31.70;;;34.00;70.90;;;;;;1782747;79;21148;-73
2023/04/10 03:43:44;;;;;;;38.10;32.35;;;34.10;70.90;;;;;;1791710;79;21655;-73
2023/04/10 03:46:15;;;;;;;39.90;32.78;;;34.10;70.00;;;;;;1774625;79;21236;-72
2023/04/10 03:48:48;;;;;;;38.90;32.23;;;34.20;69.30;;;;;;1802669;78;21142;-73
2023/04/10 03:51:19;;;;;;;37.20;31.33;;;34.20;69.60;;;;;;1768343;79;21198;-77
2023/04/10 03:53:50;;;;;;;36.63;32.10;;;34.30;69.50;;;;;;1752215;80;21236;-74
2023/04/10 03:56:22;;;;;;;37.05;33.05;;;34.30;68.90;;;;;;1759371;80;21688;-73
2023/04/10 03:58:53;;;;;;;36.68;32.70;;;34.40;68.90;;;;;;1718720;82;21374;-73
2023/04/10 04:01:25;;;;;;;47.05;36.28;;;34.50;68.10;;;;;;1783577;79;21163;-74
2023/04/10 04:03:56;;;;;;;37.35;31.42;;;34.60;68.10;;;;;;1752391;79;21116;-74
2023/04/10 04:06:30;;;;;;;35.85;29.63;;;34.60;67.40;;;;;;1777182;80;21108;-73
2023/04/10 04:09:01;;;;;;;34.92;30.62;;;34.60;67.60;;;;;;1779172;80;21215;-75
2023/04/10 04:11:33;;;;;;;33.80;29.45;;;34.70;67.00;;;;;;1778605;79;21219;-73
2023/04/10 04:14:04;;;;;;;40.67;34.78;;;34.80;67.00;;;;;;1775257;79;21199;-75
2023/04/10 04:16:35;;;;;;;33.78;28.47;;;34.70;67.30;;;;;;1793810;78;21150;-74
2023/04/10 04:19:06;;;;;;;32.23;28.73;;;34.80;66.70;;;;;;1747309;82;21685;-74
2023/04/10 04:21:37;;;;;;;36.73;32.73;;;34.80;64.70;;;;;;1736716;81;21203;-72
2023/04/10 04:24:08;;;;;;;41.53;34.45;;;34.80;65.50;;;;;;1782833;78;21222;-75
2023/04/10 04:26:39;;;;;;;33.08;27.87;;;34.70;65.70;;;;;;1785806;78;21634;-74
2023/04/10 04:29:10;;;;;;;33.08;27.37;;;34.70;65.80;;;;;;1782062;77;21155;-74
2023/04/10 04:31:42;;;;;;;31.75;26.70;;;34.70;65.80;;;;;;1791605;78;21108;-74
2023/04/10 04:34:13;;;;;;;32.73;27.48;;;34.70;65.30;;;;;;1773878;79;21207;-74
2023/04/10 04:36:44;;;;;;;33.00;27.55;;;34.70;65.40;;;;;;1790437;80;21136;-74
2023/04/10 04:39:16;;;;;;;37.03;29.27;;;34.70;65.80;;;;;;1799760;78;21194;-74
2023/04/10 04:41:47;;;;;;;34.13;29.90;;;34.80;66.00;;;;;;1729776;81;21186;-73
2023/04/10 04:44:19;;;;;;;32.78;29.27;;;34.80;65.80;;;;;;1730317;81;21725;-73
2023/04/10 04:46:50;;;;;;;38.23;32.15;;;34.90;65.80;;;;;;1727912;82;21141;-75
2023/04/10 04:49:22;;;;;;;35.45;29.25;;;34.90;65.60;;;;;;1750618;79;21284;-74
2023/04/10 04:51:52;;;;;;;33.58;28.23;;;34.90;64.60;;;;;;1772545;78;21091;-75
2023/04/10 04:54:25;;;;;;;30.65;27.40;;;34.90;64.20;;;;;;1777313;79;21529;-74
2023/04/10 04:56:56;;;;;;;31.70;28.23;;;34.80;63.90;;;;;;1770371;80;21132;-74
2023/04/10 04:59:27;;;;;;;29.72;26.45;;;34.80;64.80;;;;;;1807218;78;21230;-74
2023/04/10 05:01:59;;;;;;;31.40;27.42;;;34.70;64.80;;;;;;1826291;78;21160;-74
2023/04/10 05:04:31;;;;;;;36.63;32.30;;;34.70;64.40;;;;;;1767804;80;21194;-73
2023/04/10 05:07:02;;;;;;;30.62;27.35;;;34.70;63.30;;;;;;1802156;78;21130;-74
2023/04/10 05:09:33;;;;;;;33.08;29.57;;;34.80;63.60;;;;;;1801319;78;22133;-74
2023/04/10 05:12:04;;;;;;;31.62;28.10;;;35.00;62.80;;;;;;1801584;78;21612;-73
2023/04/10 05:14:35;;;;;;;32.58;28.05;;;35.10;63.00;;;;;;1816755;77;21103;-73
2023/04/10 05:17:06;;;;;;;32.50;27.20;;;35.30;61.80;;;;;;1763404;78;21186;-75
2023/04/10 05:19:37;;;;;;;29.55;26.40;;;35.40;61.60;;;;;;1784598;78;21260;-75
2023/04/10 05:22:08;;;;;;;30.90;27.67;;;35.50;61.50;;;;;;1751618;81;21153;-74
2023/04/10 05:24:39;;;;;;;30.15;26.85;;;35.70;60.30;;;;;;1739644;82;21257;-76
2023/04/10 05:27:10;;;;;;;30.92;27.80;;;35.70;60.10;;;;;;1792836;79;21220;-75
2023/04/10 05:29:41;;;;;;;32.25;27.02;;;35.70;61.50;;;;;;1750676;80;21271;-73
2023/04/10 05:32:12;;;;;;;29.50;26.50;;;35.60;60.90;;;;;;1774965;80;21199;-73
2023/04/10 05:34:43;;;;;;;30.82;27.67;;;35.60;61.60;;;;;;1774428;80;21234;-74
2023/04/10 05:37:14;;;;;;;32.10;28.60;;;35.60;61.60;;;;;;1777154;79;21205;-74
2023/04/10 05:39:45;;;;;;;40.15;32.25;;;35.60;60.60;;;;;;1741083;80;21150;-74
2023/04/10 05:42:16;;;;;;;31.17;27.80;;;35.70;60.20;;;;;;1721855;82;21643;-73
2023/04/10 05:44:47;;;;;;;33.42;27.52;;;35.90;60.40;;;;;;1777403;79;21155;-75
2023/04/10 05:47:19;;;;;;;30.72;27.35;;;35.90;59.70;;;;;;1784810;79;21206;-74
2023/04/10 05:49:50;;;;;;;31.12;28.00;;;35.90;59.40;;;;;;1775868;79;21110;-74
2023/04/10 05:52:21;;;;;;;31.75;27.90;;;35.90;59.90;;;;;;1773124;80;21731;-74
2023/04/10 05:54:53;;;;;;;31.15;27.82;;;35.80;60.00;;;;;;1776855;80;21067;-73
2023/04/10 05:57:25;;;;;;;35.38;30.37;;;35.60;60.30;;;;;;1774770;79;22139;-74
2023/04/10 05:59:56;;;;;;;31.82;28.47;;;35.50;60.70;;;;;;1781834;78;21230;-73
2023/04/10 06:02:27;;;;;;;32.60;27.17;;;35.60;61.30;;;;;;1781671;78;21178;-73
2023/04/10 06:04:58;;;;;;;34.00;28.60;;;35.60;60.90;;;;;;1784645;78;21265;-73
2023/04/10 06:07:32;;;;;;;31.87;28.05;;;35.60;60.80;;;;;;1790176;77;21195;-73
2023/04/10 06:10:02;;;;;;;30.95;27.70;;;35.80;60.10;;;;;;1806388;78;21820;-74
2023/04/10 06:12:34;;;;;;;33.02;28.65;;;35.80;60.10;;;;;;1816355;78;21577;-75
2023/04/10 06:15:05;;;;;;;32.23;27.90;;;35.90;60.00;;;;;;1810385;78;21168;-74
2023/04/10 06:17:38;;;;;;;31.15;27.17;;;35.80;59.50;;;;;;1808742;78;21212;-74
2023/04/10 06:20:10;;;;;;;38.10;30.00;;;35.80;59.90;;;;;;1777361;79;21177;-74
2023/04/10 06:22:41;;;;;;;38.53;30.85;;;35.80;60.20;;;;;;1792160;79;21685;-74
2023/04/10 06:25:12;;;;;;;34.67;29.10;;;35.80;60.00;;;;;;1781615;79;21212;-74
2023/04/10 06:27:44;;;;;;;38.67;30.70;;;35.70;59.30;;;;;;1791617;78;21149;-74
2023/04/10 06:30:15;;;;;;;92.82;35.38;;;35.80;59.70;;;;;;1786589;78;21198;-74
2023/04/10 06:32:46;;;;;;;32.98;27.55;;;35.90;59.40;;;;;;1740761;80;21213;-74
2023/04/10 06:35:17;;;;;;;29.32;26.30;;;35.90;58.90;;;;;;1734759;81;21189;-73
2023/04/10 06:37:48;;;;;;;48.95;28.62;;;35.90;58.50;;;;;;1757708;80;21725;-74
2023/04/10 06:40:19;;;;;;;32.42;27.07;;;35.90;58.60;;;;;;1780705;78;21602;-75
2023/04/10 06:42:50;;;;;;;32.88;27.52;;;35.90;59.00;;;;;;1724156;81;21194;-75
2023/04/10 06:45:22;;;;;;;29.87;26.73;;;36.00;58.80;;;;;;1777224;79;21212;-76
2023/04/10 06:47:53;;;;;;;30.92;27.73;;;36.10;58.30;;;;;;1761468;80;21265;-74
2023/04/10 06:50:24;;;;;;;33.58;29.15;;;36.10;58.30;;;;;;1768812;79;21244;-74
2023/04/10 06:52:58;;;;;;;31.77;28.50;;;36.00;58.40;;;;;;1781597;79;21603;-75
2023/04/10 06:55:27;;;;;;;34.60;29.05;;;36.10;58.10;;;;;;1820788;79;21802;-75
2023/04/10 06:57:59;;;;;;;30.70;27.48;;;36.20;57.60;;;;;;1806484;77;21065;-74
2023/04/10 07:00:30;;;;;;;34.73;28.12;;;36.20;58.00;;;;;;1786681;79;21134;-74
2023/04/10 07:03:01;;;;;;;30.43;27.22;;;36.30;57.70;;;;;;1797683;78;21715;-73
2023/04/10 07:05:33;;;;;;;32.85;29.57;;;36.30;57.70;;;;;;1784138;78;21212;-74
2023/04/10 07:08:04;;;;;;;35.65;28.02;;;36.20;57.70;;;;;;1780780;78;21144;-75
2023/04/10 07:10:35;;;;;;;31.55;28.35;;;36.20;57.50;;;;;;1788827;78;21664;-74
2023/04/10 07:13:06;;;;;;;30.17;27.07;;;36.20;57.70;;;;;;1777251;80;21155;-75
2023/04/10 07:15:38;;;;;;;31.87;26.95;;;36.20;57.80;;;;;;1783104;78;22318;-73
2023/04/10 07:18:09;;;;;;;29.75;26.55;;;36.10;57.20;;;;;;1773654;79;21646;-74
2023/04/10 07:20:40;;;;;;;34.80;29.67;;;36.20;57.30;;;;;;1767447;80;21076;-74
2023/04/10 07:23:31;;;;;;;30.40;26.73;;;36.10;57.20;;;;;;1775553;80;21653;-74
2023/04/10 07:26:02;;;;;;;31.93;28.73;;;36.20;57.30;;;;;;1787127;79;21177;-74
2023/04/10 07:28:33;;;;;;;34.00;30.37;;;36.30;56.80;;;;;;1752112;80;21677;-74
2023/04/10 07:31:05;;;;;;;30.75;27.17;;;36.30;57.00;;;;;;1756704;80;21220;-73
2023/04/10 07:33:36;;;;;;;33.10;28.70;;;36.40;56.60;;;;;;1766400;80;21565;-75
2023/04/10 07:36:08;;;;;;;32.15;27.30;;;36.40;56.40;;;;;;1782187;79;21102;-74
2023/04/10 07:38:39;;;;;;;31.05;27.80;;;36.50;56.30;;;;;;1757079;80;21609;-76
2023/04/10 07:41:11;;;;;;;31.93;27.82;;;36.50;55.90;;;;;;1754775;80;21211;-75
2023/04/10 07:43:41;;;;;;;31.12;27.67;;;36.50;55.90;;;;;;1757569;79;21182;-74
2023/04/10 07:46:13;;;;;;;31.10;27.87;;;36.40;56.10;;;;;;1754927;79;21637;-76
2023/04/10 07:48:46;;;;;;;30.75;26.17;;;36.50;56.40;;;;;;1753212;80;21223;-75
2023/04/10 07:51:17;;;;;;;32.42;28.92;;;36.40;56.50;;;;;;1765639;80;21194;-75
2023/04/10 07:53:48;;;;;;;30.70;27.55;;;36.40;55.80;;;;;;1776400;80;21146;-76
2023/04/10 07:56:20;;;;;;;31.82;27.87;;;36.40;56.30;;;;;;1772144;79;21126;-76
2023/04/10 07:58:52;;;;;;;30.48;27.35;;;36.30;56.00;;;;;;1771898;79;21153;-76
2023/04/10 08:01:24;;;;;;;34.13;30.82;;;36.30;55.60;;;;;;1771366;79;21165;-75
2023/04/10 08:03:56;;;;;;;36.35;29.05;;;36.30;56.30;;;;;;1795896;79;21251;-74
2023/04/10 08:06:27;;;;;;;35.70;29.85;;;36.40;56.00;;;;;;1750991;80;21107;-74
2023/04/10 08:08:58;;;;;;;31.37;27.13;;;36.30;56.40;;;;;;1757333;80;21202;-73
2023/04/10 08:11:35;;;;;;;30.45;27.20;;;36.30;56.20;;;;;;1792935;79;21099;-74
2023/04/10 08:14:07;;;;;;;30.95;27.87;;;36.30;56.20;;;;;;1788497;79;21227;-74
2023/04/10 08:16:39;;;;;;;31.05;27.82;;;36.30;55.40;;;;;;1777098;79;21179;-74
2023/04/10 08:19:10;;;;;;;31.27;27.02;;;36.30;55.40;;;;;;1771685;79;21641;-73
2023/04/10 08:21:41;;;;;;;30.65;27.52;;;36.40;55.90;;;;;;1790236;79;21170;-74
2023/04/10 08:24:12;;;;;;;32.85;29.32;;;36.30;55.70;;;;;;1764621;80;21710;-75
2023/04/10 08:26:44;;;;;;;30.35;27.35;;;36.30;56.20;;;;;;1752775;80;21612;-74
2023/04/10 08:29:15;;;;;;;32.98;29.52;;;36.20;55.80;;;;;;1758034;81;21154;-75
2023/04/10 08:31:46;;;;;;;43.73;30.85;;;36.20;55.40;;;;;;1782780;79;21523;-75
2023/04/10 08:34:19;;;;;;;37.08;29.50;;;36.30;56.00;;;;;;1787679;79;21193;-75
2023/04/10 08:36:50;;;;;;;36.88;32.98;;;36.40;55.40;;;;;;1756248;81;21216;-74
2023/04/10 08:39:21;;;;;;;31.90;28.77;;;36.60;54.70;;;;;;1754972;81;21208;-74
2023/04/10 08:41:53;;;;;;;36.98;31.75;;;36.60;53.70;;;;;;1760147;80;21246;-75
2023/04/10 08:44:24;;;;;;;31.80;28.83;;;36.60;54.00;;;;;;1751682;80;21160;-75
2023/04/10 08:46:57;;;;;;;33.33;29.72;;;36.60;54.00;;;;;;1763856;80;21593;-74
2023/04/10 08:49:31;;;;;;;29.72;26.73;;;36.50;54.00;;;;;;1775068;80;21201;-74
2023/04/10 08:52:04;;;;;;;32.03;27.95;;;36.40;54.20;;;;;;1780055;80;21207;-75
2023/04/10 08:54:37;;;;;;;32.20;27.75;;;36.40;54.50;;;;;;1791774;79;21207;-74
2023/04/10 08:57:12;;;;;;;43.78;35.43;;;36.30;54.30;;;;;;1795150;79;21150;-74
2023/04/10 08:59:43;;;;;;;41.23;36.30;;;36.30;55.10;;;;;;1783565;79;21153;-75
2023/04/10 09:02:15;;;;;;;43.48;35.95;;;36.30;55.10;;;;;;1787761;79;21216;-75
2023/04/10 09:04:50;;;;;;;35.73;31.85;;;36.30;54.70;;;;;;1777204;79;21175;-74
2023/04/10 09:07:23;;;;;;;36.38;32.67;;;36.40;54.00;;;;;;1776259;79;21145;-75
2023/04/10 09:09:54;;;;;;;33.48;30.02;;;36.40;54.40;;;;;;1803649;79;21137;-75
2023/04/10 09:12:25;;;;;;;33.05;26.70;;;36.40;54.60;;;;;;1771843;79;21470;-75
2023/04/10 09:14:57;;;;;;;31.17;27.52;;;36.40;54.60;;;;;;1773497;79;21185;-74
2023/04/10 09:17:28;;;;;;;30.57;27.48;;;36.40;54.70;;;;;;1788294;80;21101;-74
2023/04/10 09:20:00;;;;;;;33.23;29.77;;;36.40;54.80;;;;;;1766960;80;21111;-74
2023/04/10 09:22:32;;;;;;;35.95;30.23;;;36.40;55.20;;;;;;1732151;81;21164;-74
2023/04/10 09:25:05;;;;;;;36.55;32.55;;;36.40;55.10;;;;;;1735889;81;21624;-74
2023/04/10 09:27:38;;;;;;;30.95;27.70;;;36.40;54.80;;;;;;1748997;81;21115;-73
2023/04/10 09:30:09;;;;;;;39.92;35.35;;;36.50;53.90;;;;;;1759832;80;21173;-76
2023/04/10 09:32:42;;;;;;;35.25;31.57;;;36.40;54.60;;;;;;1754136;80;21207;-75
2023/04/10 09:35:15;;;;;;;30.43;27.37;;;36.40;54.50;;;;;;1749095;80;21252;-75
2023/04/10 09:37:47;;;;;;;32.33;28.95;;;36.40;55.10;;;;;;1764580;80;21205;-74
2023/04/10 09:40:23;;;;;;;32.35;28.95;;;36.30;57.30;;;;;;1761008;80;21251;-75
2023/04/10 09:42:57;;;;;;;34.73;29.15;;;36.20;58.10;;;;;;1785595;79;21221;-74
2023/04/10 09:45:32;;;;;;;31.57;28.38;;;36.10;58.30;;;;;;1809458;79;21226;-74
2023/04/10 09:48:08;;;;;;;31.60;28.30;;;36.00;59.40;;;;;;1807765;79;21181;-74
2023/04/10 09:50:40;;;;;;;30.50;27.25;;;36.00;59.10;;;;;;1786166;80;21204;-74
2023/04/10 09:53:15;;;;;;;32.60;29.15;;;35.90;59.50;;;;;;1780612;79;21185;-74
2023/04/10 09:55:48;;;;;;;32.25;29.07;;;35.80;59.60;;;;;;1770936;81;21314;-73
2023/04/10 09:58:19;;;;;;;32.17;27.45;;;35.70;59.50;;;;;;1758163;80;21130;-74
2023/04/10 10:00:51;;;;;;;33.15;27.00;;;35.70;59.90;;;;;;1792807;79;21161;-74
2023/04/10 10:03:23;;;;;;;31.87;28.35;;;35.60;59.90;;;;;;1789290;78;21127;-75
2023/04/10 10:05:54;;;;;;;35.70;29.70;;;35.60;59.50;;;;;;1795512;78;21145;-74
2023/04/10 10:08:27;;;;;;;31.05;27.90;;;35.50;59.40;;;;;;1784872;79;22325;-74
2023/04/10 10:11:00;;;;;;;30.82;27.62;;;35.50;59.70;;;;;;1794335;78;21236;-74
2023/04/10 10:13:40;;;;;;;32.17;28.27;;;35.50;59.90;;;;;;1780672;79;21121;-73
2023/04/10 10:16:29;;;;;;;32.42;28.40;;;35.40;60.00;;;;;;1771439;80;21152;-74
2023/04/10 10:19:23;;;;;;;32.98;29.40;;;35.30;60.00;;;;;;1777120;80;21170;-74
2023/04/10 10:21:52;;;;;;;32.35;29.15;;;35.30;60.30;;;;;;1786853;79;21634;-74
2023/04/10 10:24:25;;;;;;;33.30;29.82;;;35.30;60.60;;;;;;1787369;79;21159;-74
2023/04/10 10:26:56;;;;;;;33.23;29.63;;;35.20;60.90;;;;;;1792657;79;21204;-74
2023/04/10 10:29:30;;;;;;;35.95;29.42;;;35.20;61.10;;;;;;1764182;79;21213;-74
2023/04/10 10:32:03;;;;;;;33.60;29.65;;;35.10;61.10;;;;;;1762841;81;21167;-73
2023/04/10 10:34:35;;;;;;;33.73;30.15;;;35.10;61.30;;;;;;1785445;79;21634;-73
2023/04/10 10:37:07;;;;;;;33.65;29.72;;;35.00;61.30;;;;;;1781449;80;21152;-74
2023/04/10 10:40:13;;;;;;;34.15;30.48;;;34.90;61.40;;;;;;1755691;80;21704;-75
2023/04/10 10:43:11;;;;;;;35.95;32.10;;;34.90;61.60;;;;;;1793981;78;21220;-75
2023/04/10 10:45:56;;;;;;;35.30;31.33;;;34.90;61.80;;;;;;1753966;80;21260;-74
2023/04/10 10:48:27;;;;;;;34.77;31.13;;;34.80;62.20;;;;;;1761626;80;21170;-73
2023/04/10 10:51:00;;;;;;;35.15;31.48;;;34.80;63.20;;;;;;1792485;79;21685;-75
2023/04/10 10:53:36;;;;;;;36.63;31.02;;;34.80;62.50;;;;;;1779625;79;21143;-75
2023/04/10 10:56:21;;;;;;;35.23;30.62;;;34.80;62.70;;;;;;1781429;79;21697;-75
2023/04/10 10:58:56;;;;;;;34.55;30.82;;;34.80;62.70;;;;;;1768027;79;21627;-75
2023/04/10 11:01:28;;;;;;;35.92;31.87;;;34.70;62.90;;;;;;1778348;79;21213;-75
2023/04/10 11:03:59;;;;;;;34.55;30.97;;;34.70;63.00;;;;;;1772045;79;21147;-75
2023/04/10 11:06:52;;;;;;;36.50;30.45;;;34.70;63.20;;;;;;1749270;80;21137;-76
2023/04/10 11:09:53;;;;;;;36.65;31.40;;;34.70;63.20;;;;;;1795589;78;21161;-75
2023/04/10 11:12:25;;;;;;;35.80;31.48;;;34.70;64.00;;;;;;1788725;79;21156;-74
2023/04/10 11:15:04;;;;;;;33.42;29.00;;;34.70;63.30;;;;;;1794994;78;21196;-76
2023/04/10 11:17:52;;;;;;;44.60;34.33;;;34.70;63.20;;;;;;1773879;79;21113;-74
2023/04/10 11:20:27;;;;;;;38.23;30.65;;;34.70;63.30;;;;;;1780776;79;21265;-74
2023/04/10 11:23:10;;;;;;;36.35;29.52;;;34.70;63.20;;;;;;1779390;79;21177;-73
2023/04/10 11:25:54;;;;;;;38.02;34.05;;;34.60;63.00;;;;;;1784673;79;21205;-73
2023/04/10 11:28:38;;;;;;;36.05;30.62;;;34.60;62.90;;;;;;1795658;79;21175;-74
2023/04/10 11:31:21;;;;;;;35.35;30.05;;;34.60;63.00;;;;;;1778284;79;21283;-83
2023/04/10 11:34:06;;;;;;;38.50;31.68;;;34.60;62.70;;;;;;1789483;79;21107;-83
2023/04/10 11:36:39;;;;;;;37.30;31.20;;;34.50;62.60;;;;;;1787919;79;21182;-84
2023/04/10 11:39:12;;;;;;;36.40;31.75;;;34.60;63.00;;;;;;1786435;79;21169;-83
2023/04/10 11:41:45;;;;;;;33.50;29.87;;;34.50;63.00;;;;;;1782507;79;21098;-86
2023/04/10 11:44:35;;;;;;;36.13;32.20;;;34.50;63.20;;;;;;1770798;79;21625;-86
2023/04/10 11:47:06;;;;;;;38.85;32.30;;;34.50;63.50;;;;;;1773274;79;21582;-88
2023/04/10 11:49:37;;;;;;;37.23;33.25;;;34.40;63.50;;;;;;1776414;79;21146;-87
2023/04/10 11:52:08;;;;;;;38.85;33.35;;;34.40;63.80;;;;;;1774387;79;21249;-88
2023/04/10 11:54:42;;;;;;;39.33;33.83;;;34.40;64.00;;;;;;1774097;79;21126;-89
2023/04/10 11:57:13;;;;;;;37.70;33.38;;;34.40;64.20;;;;;;1784433;79;21616;-89
2023/04/10 11:59:46;;;;;;;36.20;32.33;;;34.30;64.30;;;;;;1779353;79;21150;-87
2023/04/10 12:02:17;;;;;;;39.27;32.35;;;34.30;64.60;;;;;;1772045;79;21147;-87
2023/04/10 12:04:51;;;;;;;37.83;33.58;;;34.30;64.80;;;;;;1777570;79;21237;-88
2023/04/10 12:07:26;;;;;;;36.77;31.65;;;34.30;65.70;;;;;;1769386;79;21539;-88
2023/04/10 12:09:59;;;;;;;37.28;32.65;;;34.30;65.00;;;;;;1782702;79;21570;-85
2023/04/10 12:12:37;;;;;;;40.90;33.08;;;34.20;64.90;;;;;;1777001;79;21072;-85
2023/04/10 12:15:26;;;;;;;39.95;35.45;;;34.20;65.00;;;;;;1776146;79;21151;-86
2023/04/10 12:17:57;;;;;;;44.30;36.70;;;34.20;64.90;;;;;;1776154;79;21158;-86
2023/04/10 12:20:29;;;;;;;43.70;38.95;;;34.20;65.10;;;;;;1774089;79;21170;-87
2023/04/10 12:23:01;;;;;;;49.58;40.80;;;34.20;65.00;;;;;;1777026;79;21135;-84
2023/04/10 12:25:34;;;;;;;46.15;40.58;;;34.20;65.00;;;;;;1773553;79;21112;-87
2023/04/10 12:28:05;;;;;;;47.50;41.90;;;34.10;64.90;;;;;;1777917;79;21214;-87
2023/04/10 12:30:36;;;;;;;51.30;44.15;;;34.10;64.90;;;;;;1779860;79;21233;-88
2023/04/10 12:33:07;;;;;;;52.43;42.95;;;34.10;64.80;;;;;;1778170;79;21091;-85
2023/04/10 12:35:39;;;;;;;48.25;42.10;;;34.10;65.00;;;;;;1775713;79;21209;-86
2023/04/10 12:38:10;;;;;;;48.68;39.63;;;34.10;65.20;;;;;;1780422;79;21636;-86
2023/04/10 12:40:58;;;;;;;45.95;41.18;;;34.10;65.40;;;;;;1780272;79;21680;-87
2023/04/10 12:43:33;;;;;;;49.27;43.63;;;34.00;65.50;;;;;;1774627;79;21209;-88
2023/04/10 12:46:06;;;;;;;50.43;45.08;;;34.00;65.70;;;;;;1795597;79;21154;-87
2023/04/10 12:48:37;;;;;;;54.55;47.33;;;34.00;65.90;;;;;;1795822;79;21722;-85
2023/04/10 12:51:08;;;;;;;55.48;45.73;;;34.00;66.10;;;;;;1775540;79;21150;-87
2023/04/10 12:53:46;;;;;;;51.53;46.02;;;34.00;66.30;;;;;;1771802;79;21146;-86
2023/04/10 12:56:19;;;;;;;54.55;45.55;;;34.00;66.40;;;;;;1783017;79;21661;-86
2023/04/10 12:58:49;;;;;;;56.40;46.70;;;34.00;66.90;;;;;;1755128;80;21106;-86